createdAt,value
2023-09-13T00:02:37.700Z,16.82
2023-09-13T00:07:43.228Z,16.81
2023-09-13T00:13:03.238Z,16.77
2023-09-13T00:18:09.659Z,16.69
2023-09-13T00:23:15.663Z,16.63
2023-09-13T00:28:20.967Z,16.57
2023-09-13T00:33:31.222Z,16.50
2023-09-13T00:38:38.584Z,16.42
2023-09-13T00:43:46.624Z,16.35
2023-09-13T00:49:02.210Z,16.33
2023-09-13T00:54:08.302Z,16.29
2023-09-13T00:59:13.574Z,16.24
2023-09-13T01:04:18.816Z,16.21
2023-09-13T01:09:36.177Z,16.19
2023-09-13T01:14:41.648Z,16.16
2023-09-13T01:20:16.893Z,16.17
2023-09-13T01:26:06.420Z,16.17
2023-09-13T01:31:14.209Z,16.23
2023-09-13T01:36:22.365Z,16.29
2023-09-13T01:41:33.834Z,16.34
2023-09-13T01:46:44.447Z,16.37
2023-09-13T01:51:50.527Z,16.37
2023-09-13T01:56:56.594Z,16.35
2023-09-13T02:02:02.338Z,16.32
2023-09-13T02:07:07.591Z,16.28
2023-09-13T02:12:25.889Z,16.25
2023-09-13T02:17:33.861Z,16.19
2023-09-13T02:22:39.371Z,16.08
2023-09-13T02:27:49.041Z,15.93
2023-09-13T02:32:56.948Z,15.77
2023-09-13T02:38:03.414Z,15.69
2023-09-13T02:43:10.346Z,15.66
2023-09-13T02:48:17.203Z,15.69
2023-09-13T02:53:24.097Z,15.78
2023-09-13T02:58:30.354Z,15.78
2023-09-13T03:03:35.645Z,15.72
2023-09-13T03:08:42.184Z,15.70
2023-09-13T03:13:47.670Z,15.68
2023-09-13T03:18:55.239Z,15.69
2023-09-13T03:24:06.257Z,15.71
2023-09-13T03:29:12.155Z,15.69
2023-09-13T03:34:18.694Z,15.68
2023-09-13T03:39:27.209Z,15.69
2023-09-13T03:44:32.359Z,15.70
2023-09-13T03:50:07.385Z,15.69
2023-09-13T03:55:13.213Z,15.66
2023-09-13T04:00:19.122Z,15.62
2023-09-13T04:05:26.881Z,15.60
2023-09-13T04:10:32.037Z,15.58
2023-09-13T04:15:37.491Z,15.57
2023-09-13T04:20:45.000Z,15.57
2023-09-13T04:25:53.877Z,15.59
2023-09-13T04:31:02.266Z,15.61
2023-09-13T04:36:08.239Z,15.61
2023-09-13T04:41:17.818Z,15.64
2023-09-13T04:47:16.483Z,15.70
2023-09-13T04:53:42.785Z,15.77
2023-09-13T05:00:03.623Z,15.88
2023-09-13T05:06:01.756Z,16.01
2023-09-13T05:12:27.300Z,16.14
2023-09-13T05:18:45.515Z,16.34
2023-09-13T05:25:07.121Z,16.60
2023-09-13T05:31:13.300Z,16.92
2023-09-13T05:37:41.361Z,17.23
2023-09-13T05:44:09.681Z,17.57
2023-09-13T06:02:23.293Z,18.45
2023-09-13T06:08:24.775Z,18.66
2023-09-13T06:14:27.422Z,18.97
2023-09-13T06:20:20.187Z,19.36
2023-09-13T06:26:16.943Z,19.66
2023-09-13T06:32:42.678Z,19.98
2023-09-13T06:38:31.750Z,20.28
2023-09-13T06:57:12.388Z,21.01
2023-09-13T07:03:40.509Z,21.16
2023-09-13T07:09:35.671Z,21.36
2023-09-13T07:15:31.633Z,21.57
2023-09-13T07:21:25.953Z,21.78
2023-09-13T07:27:45.055Z,22.10
2023-09-13T07:33:01.461Z,22.51
2023-09-13T07:39:08.583Z,22.90
2023-09-13T07:45:17.069Z,23.25
2023-09-13T07:51:10.383Z,23.60
2023-09-13T07:56:38.961Z,23.92
2023-09-13T08:02:31.742Z,24.16
2023-09-13T08:08:12.617Z,24.41
2023-09-13T08:14:11.249Z,24.66
2023-09-13T08:20:08.854Z,24.94
2023-09-13T08:25:55.183Z,25.20
2023-09-13T08:31:45.186Z,25.43
2023-09-13T08:37:14.162Z,25.61
2023-09-13T08:43:25.860Z,25.73
2023-09-13T08:49:34.277Z,25.89
2023-09-13T08:55:40.165Z,26.08
2023-09-13T09:00:58.103Z,26.26
2023-09-13T09:06:46.889Z,26.36
2023-09-13T09:12:19.332Z,26.51
2023-09-13T09:17:26.535Z,26.66
2023-09-13T09:22:32.103Z,26.82
2023-09-13T09:27:38.641Z,26.90
2023-09-13T09:32:47.039Z,26.99
2023-09-13T09:38:23.256Z,27.14
2023-09-13T09:43:33.559Z,27.23
2023-09-13T09:49:12.127Z,27.36
2023-09-13T09:54:43.573Z,27.35
2023-09-13T10:00:11.504Z,27.28
2023-09-13T10:05:25.092Z,27.38
2023-09-13T10:10:53.858Z,27.57
2023-09-13T10:16:09.389Z,27.81
2023-09-13T10:22:07.574Z,28.08
2023-09-13T10:27:33.484Z,28.24
2023-09-13T10:32:52.582Z,28.26
2023-09-13T10:38:05.639Z,28.35
2023-09-13T10:43:31.022Z,28.45
2023-09-13T10:48:59.682Z,28.48
2023-09-13T10:54:05.621Z,28.65
2023-09-13T10:59:14.215Z,28.88
2023-09-13T11:04:20.378Z,29.04
2023-09-13T11:09:31.554Z,29.06
2023-09-13T11:14:36.784Z,29.09
2023-09-13T11:19:41.275Z,29.15
2023-09-13T11:25:02.553Z,29.19
2023-09-13T11:30:13.947Z,29.24
2023-09-13T11:35:26.061Z,29.26
2023-09-13T11:40:31.064Z,29.33
2023-09-13T11:45:38.600Z,29.32
2023-09-13T11:50:48.668Z,29.05
2023-09-13T11:56:11.566Z,28.81
2023-09-13T12:01:25.890Z,28.87
2023-09-13T12:06:36.690Z,28.85
2023-09-13T12:11:44.296Z,28.44
2023-09-13T12:16:53.587Z,27.84
2023-09-13T12:21:58.337Z,27.32
2023-09-13T12:27:05.556Z,26.86
2023-09-13T12:32:11.170Z,26.48
2023-09-13T12:37:16.540Z,26.30
2023-09-13T12:42:24.885Z,26.03
2023-09-13T12:47:57.221Z,25.74
2023-09-13T12:53:53.747Z,25.51
2023-09-13T12:59:44.007Z,25.40
2023-09-13T13:05:15.162Z,25.30
2023-09-13T13:11:54.277Z,25.31
2023-09-13T13:17:51.551Z,25.41
2023-09-13T13:23:47.774Z,25.49
2023-09-13T13:30:05.096Z,25.55
2023-09-13T13:36:14.670Z,25.69
2023-09-13T13:42:09.711Z,25.85
2023-09-13T13:47:44.209Z,25.99
2023-09-13T13:53:33.822Z,26.16
2023-09-13T13:59:16.554Z,26.39
2023-09-13T14:04:42.452Z,26.51
2023-09-13T14:09:55.178Z,26.63
2023-09-13T14:15:06.620Z,26.75
2023-09-13T14:20:12.858Z,26.87
2023-09-13T14:25:29.419Z,26.87
2023-09-13T14:31:07.798Z,26.89
2023-09-13T14:37:01.994Z,26.84
2023-09-13T14:42:31.166Z,26.50
2023-09-13T14:48:03.328Z,26.13
2023-09-13T14:53:35.365Z,25.87
2023-09-13T14:59:13.129Z,25.65
2023-09-13T15:04:51.828Z,25.37
2023-09-13T15:10:11.958Z,25.20
2023-09-13T15:15:19.880Z,25.21
2023-09-13T15:20:27.710Z,25.27
2023-09-13T15:25:41.777Z,25.42
2023-09-13T15:30:56.074Z,25.53
2023-09-13T15:36:19.903Z,25.52
2023-09-13T15:41:37.181Z,25.43
2023-09-13T15:47:08.167Z,25.33
2023-09-13T15:52:25.466Z,25.40
2023-09-13T15:57:41.273Z,25.56
2023-09-13T16:02:56.566Z,25.69
2023-09-13T16:08:11.960Z,25.78
2023-09-13T16:13:23.242Z,25.75
2023-09-13T16:18:40.635Z,25.59
2023-09-13T16:23:45.812Z,25.37
2023-09-13T16:28:52.035Z,25.15
2023-09-13T16:34:04.947Z,24.92
2023-09-13T16:39:18.348Z,24.66
2023-09-13T16:44:31.736Z,24.43
2023-09-13T16:49:43.078Z,24.16
2023-09-13T16:54:51.270Z,23.91
2023-09-13T17:00:01.949Z,23.69
2023-09-13T17:05:26.242Z,23.50
2023-09-13T17:10:49.793Z,23.31
2023-09-13T17:16:10.625Z,23.10
2023-09-13T17:21:29.944Z,22.92
2023-09-13T17:26:36.103Z,22.75
2023-09-13T17:31:42.140Z,22.63
2023-09-13T17:36:46.844Z,22.51
2023-09-13T17:41:56.233Z,22.38
2023-09-13T17:47:02.738Z,22.26
2023-09-13T17:52:08.779Z,22.18
2023-09-13T17:57:15.824Z,22.12
2023-09-13T18:02:23.820Z,22.07
2023-09-13T18:07:32.724Z,22.01
2023-09-13T18:12:41.150Z,21.94
2023-09-13T18:17:55.206Z,21.91
2023-09-13T18:23:20.970Z,21.89
2023-09-13T18:28:45.001Z,21.88
2023-09-13T18:33:56.035Z,21.95
2023-09-13T18:39:02.533Z,21.98
2023-09-13T18:44:15.246Z,22.02
2023-09-13T18:49:28.687Z,22.00
2023-09-13T18:54:36.769Z,21.96
2023-09-13T18:59:52.499Z,21.85
2023-09-13T19:05:12.354Z,21.71
2023-09-13T19:10:18.666Z,21.54
2023-09-13T19:15:33.026Z,21.41
2023-09-13T19:20:40.129Z,21.28
2023-09-13T19:25:54.180Z,21.17
2023-09-13T19:31:03.891Z,21.11
2023-09-13T19:36:11.925Z,21.04
2023-09-13T19:41:18.924Z,20.96
2023-09-13T19:46:25.946Z,20.88
2023-09-13T19:51:31.506Z,20.81
2023-09-13T19:56:39.810Z,20.70
2023-09-13T20:01:51.212Z,20.58
2023-09-13T20:06:59.196Z,20.44
2023-09-13T20:12:08.029Z,20.32
2023-09-13T20:17:21.563Z,20.22
2023-09-13T20:22:27.865Z,20.13
2023-09-13T20:27:43.254Z,20.07
2023-09-13T20:33:20.853Z,20.01
2023-09-13T20:38:29.697Z,19.96
2023-09-13T20:43:38.203Z,19.91
2023-09-13T20:48:45.356Z,19.83
2023-09-13T20:53:51.009Z,19.75
2023-09-13T20:58:57.829Z,19.67
2023-09-13T21:04:02.340Z,19.60
2023-09-13T21:09:07.177Z,19.53
2023-09-13T21:14:15.493Z,19.46
2023-09-13T21:20:15.140Z,19.38
2023-09-13T21:26:21.367Z,19.28
2023-09-13T21:32:14.315Z,19.23
2023-09-13T21:38:23.051Z,19.31
2023-09-13T21:44:30.568Z,19.40
2023-09-13T21:50:34.868Z,19.36
2023-09-13T21:56:13.294Z,19.26
2023-09-13T22:02:17.290Z,19.12
2023-09-13T22:07:49.071Z,18.97
2023-09-13T22:13:15.302Z,18.88
2023-09-13T22:18:20.980Z,18.77
2023-09-13T22:23:37.881Z,18.66
2023-09-13T22:28:43.232Z,18.51
2023-09-13T22:33:55.561Z,18.36
2023-09-13T22:39:20.963Z,18.25
2023-09-13T22:44:54.687Z,18.17
2023-09-13T22:50:42.869Z,18.05
2023-09-13T22:56:19.867Z,17.91
2023-09-13T23:01:48.774Z,17.78
2023-09-13T23:07:58.688Z,17.66
2023-09-13T23:13:40.653Z,17.52
2023-09-13T23:18:56.603Z,17.39
2023-09-13T23:24:44.650Z,17.28
2023-09-13T23:30:12.252Z,17.20
2023-09-13T23:35:59.038Z,17.17
2023-09-13T23:42:06.405Z,17.19
2023-09-13T23:47:31.987Z,17.20
2023-09-13T23:53:27.897Z,17.22
2023-09-13T23:58:55.074Z,17.24
